sensor_id;sensor_type;location;lat;lon;timestamp;pressure;altitude;pressure_sealevel;temperature;humidity
59873;BME280;50750;51.636;4.948;2023-07-20T00:01:27;101547.30;;;24.45;49.51
59873;BME280;50750;51.636;4.948;2023-07-20T00:03:53;101551.91;;;24.45;49.47
59873;BME280;50750;51.636;4.948;2023-07-20T00:06:25;101548.58;;;24.44;49.55
59873;BME280;50750;51.636;4.948;2023-07-20T00:08:54;101549.48;;;24.44;49.40
59873;BME280;50750;51.636;4.948;2023-07-20T00:11:25;101552.70;;;24.44;49.44
59873;BME280;50750;51.636;4.948;2023-07-20T00:13:52;101556.52;;;24.43;49.41
59873;BME280;50750;51.636;4.948;2023-07-20T00:16:18;101552.04;;;24.44;49.57
59873;BME280;50750;51.636;4.948;2023-07-20T00:18:45;101555.83;;;24.43;49.50
59873;BME280;50750;51.636;4.948;2023-07-20T00:21:11;101558.00;;;24.43;49.47
59873;BME280;50750;51.636;4.948;2023-07-20T00:23:38;101559.20;;;24.43;49.38
59873;BME280;50750;51.636;4.948;2023-07-20T00:26:04;101555.70;;;24.42;49.49
59873;BME280;50750;51.636;4.948;2023-07-20T00:28:30;101552.50;;;24.42;49.39
59873;BME280;50750;51.636;4.948;2023-07-20T00:30:59;101557.17;;;24.42;49.51
59873;BME280;50750;51.636;4.948;2023-07-20T00:33:25;101556.80;;;24.42;49.57
59873;BME280;50750;51.636;4.948;2023-07-20T00:35:52;101560.92;;;24.42;49.49
59873;BME280;50750;51.636;4.948;2023-07-20T00:38:19;101562.39;;;24.42;49.49
59873;BME280;50750;51.636;4.948;2023-07-20T00:40:46;101562.94;;;24.41;49.47
59873;BME280;50750;51.636;4.948;2023-07-20T00:43:13;101560.09;;;24.41;49.52
59873;BME280;50750;51.636;4.948;2023-07-20T00:45:40;101558.70;;;24.40;49.54
59873;BME280;50750;51.636;4.948;2023-07-20T00:48:07;101557.09;;;24.41;49.48
59873;BME280;50750;51.636;4.948;2023-07-20T00:50:34;101558.58;;;24.40;49.57
59873;BME280;50750;51.636;4.948;2023-07-20T00:53:02;101557.16;;;24.39;49.42
59873;BME280;50750;51.636;4.948;2023-07-20T00:55:31;101567.58;;;24.39;49.40
59873;BME280;50750;51.636;4.948;2023-07-20T00:57:59;101569.19;;;24.39;49.39
59873;BME280;50750;51.636;4.948;2023-07-20T01:00:26;101567.42;;;24.39;49.55
59873;BME280;50750;51.636;4.948;2023-07-20T01:02:52;101568.33;;;24.39;49.40
59873;BME280;50750;51.636;4.948;2023-07-20T01:05:19;101569.05;;;24.38;49.39
59873;BME280;50750;51.636;4.948;2023-07-20T01:07:56;101571.92;;;24.38;49.39
59873;BME280;50750;51.636;4.948;2023-07-20T01:10:44;101572.31;;;24.38;49.52
59873;BME280;50750;51.636;4.948;2023-07-20T01:13:15;101572.39;;;24.37;49.49
59873;BME280;50750;51.636;4.948;2023-07-20T01:16:01;101574.54;;;24.37;49.45
59873;BME280;50750;51.636;4.948;2023-07-20T01:18:28;101580.30;;;24.37;49.49
59873;BME280;50750;51.636;4.948;2023-07-20T01:20:59;101583.35;;;24.37;49.42
59873;BME280;50750;51.636;4.948;2023-07-20T01:27:14;101582.00;;;24.36;49.54
59873;BME280;50750;51.636;4.948;2023-07-20T01:32:46;101582.39;;;24.35;49.52
59873;BME280;50750;51.636;4.948;2023-07-20T01:35:14;101580.98;;;24.35;49.51
59873;BME280;50750;51.636;4.948;2023-07-20T01:37:44;101580.10;;;24.35;49.55
59873;BME280;50750;51.636;4.948;2023-07-20T01:40:14;101577.61;;;24.35;49.34
59873;BME280;50750;51.636;4.948;2023-07-20T01:42:45;101580.66;;;24.35;49.49
59873;BME280;50750;51.636;4.948;2023-07-20T01:45:13;101583.00;;;24.34;49.47
59873;BME280;50750;51.636;4.948;2023-07-20T01:47:39;101586.78;;;24.34;49.50
59873;BME280;50750;51.636;4.948;2023-07-20T01:50:07;101585.55;;;24.34;49.49
59873;BME280;50750;51.636;4.948;2023-07-20T01:52:33;101588.45;;;24.33;49.47
59873;BME280;50750;51.636;4.948;2023-07-20T01:54:59;101590.95;;;24.33;49.53
59873;BME280;50750;51.636;4.948;2023-07-20T01:57:26;101591.51;;;24.33;49.47
59873;BME280;50750;51.636;4.948;2023-07-20T01:59:52;101591.88;;;24.33;49.53
59873;BME280;50750;51.636;4.948;2023-07-20T02:02:19;101592.47;;;24.32;49.37
59873;BME280;50750;51.636;4.948;2023-07-20T02:04:46;101594.95;;;24.33;49.50
59873;BME280;50750;51.636;4.948;2023-07-20T02:07:13;101593.59;;;24.32;49.52
59873;BME280;50750;51.636;4.948;2023-07-20T02:09:39;101600.94;;;24.31;49.49
59873;BME280;50750;51.636;4.948;2023-07-20T02:12:05;101602.02;;;24.31;49.45
59873;BME280;50750;51.636;4.948;2023-07-20T02:14:32;101601.69;;;24.31;49.43
59873;BME280;50750;51.636;4.948;2023-07-20T02:16:59;101600.83;;;24.31;49.53
59873;BME280;50750;51.636;4.948;2023-07-20T02:19:26;101602.46;;;24.30;49.41
59873;BME280;50750;51.636;4.948;2023-07-20T02:21:53;101602.61;;;24.31;49.32
59873;BME280;50750;51.636;4.948;2023-07-20T02:24:19;101603.20;;;24.30;49.42
59873;BME280;50750;51.636;4.948;2023-07-20T02:26:46;101602.51;;;24.30;49.48
59873;BME280;50750;51.636;4.948;2023-07-20T02:29:12;101608.24;;;24.30;49.41
59873;BME280;50750;51.636;4.948;2023-07-20T02:31:38;101609.02;;;24.29;49.41
59873;BME280;50750;51.636;4.948;2023-07-20T02:34:06;101602.05;;;24.29;49.44
59873;BME280;50750;51.636;4.948;2023-07-20T02:36:33;101605.14;;;24.28;49.49
59873;BME280;50750;51.636;4.948;2023-07-20T02:39:00;101604.05;;;24.28;49.43
59873;BME280;50750;51.636;4.948;2023-07-20T02:41:33;101610.55;;;24.28;49.53
59873;BME280;50750;51.636;4.948;2023-07-20T02:44:00;101607.52;;;24.27;49.44
59873;BME280;50750;51.636;4.948;2023-07-20T02:46:28;101606.48;;;24.27;49.33
59873;BME280;50750;51.636;4.948;2023-07-20T02:48:56;101607.62;;;24.26;49.43
59873;BME280;50750;51.636;4.948;2023-07-20T02:51:22;101608.32;;;24.26;49.38
59873;BME280;50750;51.636;4.948;2023-07-20T02:53:49;101610.84;;;24.26;49.48
59873;BME280;50750;51.636;4.948;2023-07-20T02:56:15;101612.50;;;24.25;49.49
59873;BME280;50750;51.636;4.948;2023-07-20T02:58:42;101618.40;;;24.25;49.54
59873;BME280;50750;51.636;4.948;2023-07-20T03:01:09;101624.16;;;24.25;49.32
59873;BME280;50750;51.636;4.948;2023-07-20T03:03:37;101629.17;;;24.25;49.45
59873;BME280;50750;51.636;4.948;2023-07-20T03:06:05;101631.88;;;24.25;49.52
59873;BME280;50750;51.636;4.948;2023-07-20T03:08:31;101632.07;;;24.24;49.55
59873;BME280;50750;51.636;4.948;2023-07-20T03:10:58;101635.37;;;24.23;49.55
59873;BME280;50750;51.636;4.948;2023-07-20T03:13:24;101637.70;;;24.23;49.35
59873;BME280;50750;51.636;4.948;2023-07-20T03:15:52;101635.73;;;24.23;49.40
59873;BME280;50750;51.636;4.948;2023-07-20T03:18:19;101640.96;;;24.22;49.46
59873;BME280;50750;51.636;4.948;2023-07-20T03:20:45;101640.45;;;24.22;49.56
59873;BME280;50750;51.636;4.948;2023-07-20T03:23:12;101646.56;;;24.22;49.43
59873;BME280;50750;51.636;4.948;2023-07-20T03:25:38;101641.77;;;24.22;49.50
59873;BME280;50750;51.636;4.948;2023-07-20T03:28:05;101641.48;;;24.21;49.47
59873;BME280;50750;51.636;4.948;2023-07-20T03:30:32;101643.61;;;24.21;49.40
59873;BME280;50750;51.636;4.948;2023-07-20T03:32:58;101643.99;;;24.21;49.41
59873;BME280;50750;51.636;4.948;2023-07-20T03:35:25;101643.13;;;24.20;49.38
59873;BME280;50750;51.636;4.948;2023-07-20T03:37:51;101648.48;;;24.20;49.43
59873;BME280;50750;51.636;4.948;2023-07-20T03:40:18;101649.96;;;24.20;49.46
59873;BME280;50750;51.636;4.948;2023-07-20T03:42:44;101649.08;;;24.19;49.54
59873;BME280;50750;51.636;4.948;2023-07-20T03:45:10;101652.52;;;24.19;49.46
59873;BME280;50750;51.636;4.948;2023-07-20T03:47:37;101650.77;;;24.19;49.46
59873;BME280;50750;51.636;4.948;2023-07-20T03:50:04;101648.11;;;24.18;49.52
59873;BME280;50750;51.636;4.948;2023-07-20T03:52:31;101649.20;;;24.18;49.48
59873;BME280;50750;51.636;4.948;2023-07-20T03:54:58;101651.55;;;24.17;49.46
59873;BME280;50750;51.636;4.948;2023-07-20T03:57:24;101653.19;;;24.17;49.43
59873;BME280;50750;51.636;4.948;2023-07-20T03:59:50;101653.92;;;24.17;49.47
59873;BME280;50750;51.636;4.948;2023-07-20T04:02:17;101653.27;;;24.16;49.43
59873;BME280;50750;51.636;4.948;2023-07-20T04:04:44;101655.95;;;24.16;49.40
59873;BME280;50750;51.636;4.948;2023-07-20T04:07:10;101650.47;;;24.15;49.38
59873;BME280;50750;51.636;4.948;2023-07-20T04:09:36;101651.02;;;24.15;49.47
59873;BME280;50750;51.636;4.948;2023-07-20T04:12:03;101653.17;;;24.15;49.44
59873;BME280;50750;51.636;4.948;2023-07-20T04:14:29;101648.54;;;24.15;49.44
59873;BME280;50750;51.636;4.948;2023-07-20T04:16:56;101645.55;;;24.14;49.42
59873;BME280;50750;51.636;4.948;2023-07-20T04:19:22;101648.79;;;24.14;49.47
59873;BME280;50750;51.636;4.948;2023-07-20T04:21:48;101648.11;;;24.13;49.37
59873;BME280;50750;51.636;4.948;2023-07-20T04:24:15;101650.98;;;24.14;49.40
59873;BME280;50750;51.636;4.948;2023-07-20T04:26:41;101644.40;;;24.13;49.36
59873;BME280;50750;51.636;4.948;2023-07-20T04:29:08;101647.64;;;24.13;49.42
59873;BME280;50750;51.636;4.948;2023-07-20T04:31:34;101650.84;;;24.13;49.47
59873;BME280;50750;51.636;4.948;2023-07-20T04:34:01;101648.73;;;24.12;49.46
59873;BME280;50750;51.636;4.948;2023-07-20T04:36:28;101647.66;;;24.12;49.53
59873;BME280;50750;51.636;4.948;2023-07-20T04:38:54;101641.80;;;24.12;49.48
59873;BME280;50750;51.636;4.948;2023-07-20T04:41:20;101640.23;;;24.11;49.35
59873;BME280;50750;51.636;4.948;2023-07-20T04:43:47;101640.05;;;24.11;49.45
59873;BME280;50750;51.636;4.948;2023-07-20T04:46:13;101646.54;;;24.11;49.45
59873;BME280;50750;51.636;4.948;2023-07-20T04:48:40;101655.14;;;24.10;49.45
59873;BME280;50750;51.636;4.948;2023-07-20T04:51:06;101659.07;;;24.11;49.40
59873;BME280;50750;51.636;4.948;2023-07-20T04:53:33;101659.45;;;24.10;49.50
59873;BME280;50750;51.636;4.948;2023-07-20T04:55:59;101657.14;;;24.10;49.42
59873;BME280;50750;51.636;4.948;2023-07-20T04:58:25;101658.77;;;24.10;49.41
59873;BME280;50750;51.636;4.948;2023-07-20T05:00:52;101657.35;;;24.10;49.46
59873;BME280;50750;51.636;4.948;2023-07-20T05:03:19;101658.77;;;24.10;49.38
59873;BME280;50750;51.636;4.948;2023-07-20T05:05:46;101660.58;;;24.10;49.44
59873;BME280;50750;51.636;4.948;2023-07-20T05:08:13;101663.45;;;24.09;49.32
59873;BME280;50750;51.636;4.948;2023-07-20T05:10:40;101660.62;;;24.09;49.44
59873;BME280;50750;51.636;4.948;2023-07-20T05:13:06;101662.63;;;24.09;49.44
59873;BME280;50750;51.636;4.948;2023-07-20T05:15:33;101663.40;;;24.08;49.39
59873;BME280;50750;51.636;4.948;2023-07-20T05:18:02;101663.22;;;24.08;49.28
59873;BME280;50750;51.636;4.948;2023-07-20T05:20:29;101666.67;;;24.07;49.42
59873;BME280;50750;51.636;4.948;2023-07-20T05:22:56;101667.77;;;24.07;49.39
59873;BME280;50750;51.636;4.948;2023-07-20T05:25:22;101668.88;;;24.06;49.53
59873;BME280;50750;51.636;4.948;2023-07-20T05:27:49;101671.98;;;24.06;49.41
59873;BME280;50750;51.636;4.948;2023-07-20T05:30:16;101670.39;;;24.05;49.47
59873;BME280;50750;51.636;4.948;2023-07-20T05:32:43;101671.49;;;24.05;49.33
59873;BME280;50750;51.636;4.948;2023-07-20T05:35:11;101669.55;;;24.05;49.38
59873;BME280;50750;51.636;4.948;2023-07-20T05:37:38;101675.45;;;24.05;49.46
59873;BME280;50750;51.636;4.948;2023-07-20T05:40:05;101677.98;;;24.04;49.40
59873;BME280;50750;51.636;4.948;2023-07-20T05:42:34;101681.58;;;24.04;49.35
59873;BME280;50750;51.636;4.948;2023-07-20T05:45:00;101679.85;;;24.03;49.44
59873;BME280;50750;51.636;4.948;2023-07-20T05:47:26;101682.21;;;24.02;49.29
59873;BME280;50750;51.636;4.948;2023-07-20T05:49:53;101682.63;;;24.02;49.41
59873;BME280;50750;51.636;4.948;2023-07-20T05:52:19;101685.48;;;24.01;49.42
59873;BME280;50750;51.636;4.948;2023-07-20T05:54:46;101677.83;;;24.01;49.40
59873;BME280;50750;51.636;4.948;2023-07-20T05:57:12;101678.02;;;24.01;49.38
59873;BME280;50750;51.636;4.948;2023-07-20T05:59:39;101675.90;;;24.00;49.44
59873;BME280;50750;51.636;4.948;2023-07-20T06:02:11;101674.32;;;24.00;49.48
59873;BME280;50750;51.636;4.948;2023-07-20T06:04:39;101677.73;;;24.00;49.42
59873;BME280;50750;51.636;4.948;2023-07-20T06:07:06;101674.34;;;24.00;49.39
59873;BME280;50750;51.636;4.948;2023-07-20T06:09:34;101676.69;;;24.00;49.39
59873;BME280;50750;51.636;4.948;2023-07-20T06:12:00;101680.80;;;24.00;49.34
59873;BME280;50750;51.636;4.948;2023-07-20T06:14:27;101683.51;;;23.99;49.45
59873;BME280;50750;51.636;4.948;2023-07-20T06:16:53;101682.80;;;23.99;49.39
59873;BME280;50750;51.636;4.948;2023-07-20T06:19:20;101686.39;;;23.99;49.56
59873;BME280;50750;51.636;4.948;2023-07-20T06:21:48;101682.09;;;23.99;49.46
59873;BME280;50750;51.636;4.948;2023-07-20T06:24:16;101684.43;;;23.99;49.43
59873;BME280;50750;51.636;4.948;2023-07-20T06:26:43;101688.90;;;23.99;49.59
59873;BME280;50750;51.636;4.948;2023-07-20T06:29:09;101692.69;;;23.98;49.50
59873;BME280;50750;51.636;4.948;2023-07-20T06:31:36;101690.58;;;23.98;49.35
59873;BME280;50750;51.636;4.948;2023-07-20T06:34:03;101689.30;;;23.98;49.44
59873;BME280;50750;51.636;4.948;2023-07-20T06:36:29;101691.67;;;23.98;49.52
59873;BME280;50750;51.636;4.948;2023-07-20T06:38:56;101687.38;;;23.98;49.46
59873;BME280;50750;51.636;4.948;2023-07-20T06:41:22;101687.38;;;23.98;49.42
59873;BME280;50750;51.636;4.948;2023-07-20T06:43:49;101685.91;;;23.98;49.37
59873;BME280;50750;51.636;4.948;2023-07-20T06:46:16;101685.22;;;23.98;49.47
59873;BME280;50750;51.636;4.948;2023-07-20T06:48:42;101685.23;;;23.98;49.51
59873;BME280;50750;51.636;4.948;2023-07-20T06:51:09;101684.16;;;23.98;49.35
59873;BME280;50750;51.636;4.948;2023-07-20T06:53:35;101682.23;;;23.97;49.45
59873;BME280;50750;51.636;4.948;2023-07-20T06:56:02;101686.73;;;23.97;49.47
59873;BME280;50750;51.636;4.948;2023-07-20T06:58:28;101682.62;;;23.97;49.46
59873;BME280;50750;51.636;4.948;2023-07-20T07:00:55;101685.47;;;23.97;49.56
59873;BME280;50750;51.636;4.948;2023-07-20T07:03:21;101688.86;;;23.97;49.53
59873;BME280;50750;51.636;4.948;2023-07-20T07:05:48;101685.84;;;23.97;49.41
59873;BME280;50750;51.636;4.948;2023-07-20T07:08:14;101688.52;;;23.97;49.37
59873;BME280;50750;51.636;4.948;2023-07-20T07:10:40;101687.27;;;23.97;49.45
59873;BME280;50750;51.636;4.948;2023-07-20T07:13:07;101691.75;;;23.97;49.48
59873;BME280;50750;51.636;4.948;2023-07-20T07:15:33;101692.81;;;23.97;49.40
59873;BME280;50750;51.636;4.948;2023-07-20T07:18:00;101692.28;;;23.97;49.65
59873;BME280;50750;51.636;4.948;2023-07-20T07:20:27;101693.36;;;23.97;49.38
59873;BME280;50750;51.636;4.948;2023-07-20T07:22:55;101695.34;;;23.96;49.34
59873;BME280;50750;51.636;4.948;2023-07-20T07:25:22;101696.05;;;23.97;49.44
59873;BME280;50750;51.636;4.948;2023-07-20T07:27:48;101695.34;;;23.96;49.47
59873;BME280;50750;51.636;4.948;2023-07-20T07:30:15;101695.15;;;23.97;49.47
59873;BME280;50750;51.636;4.948;2023-07-20T07:32:42;101696.96;;;23.96;49.54
59873;BME280;50750;51.636;4.948;2023-07-20T07:35:09;101703.39;;;23.96;49.46
59873;BME280;50750;51.636;4.948;2023-07-20T07:37:35;101698.40;;;23.96;49.42
59873;BME280;50750;51.636;4.948;2023-07-20T07:40:03;101701.61;;;23.96;49.38
59873;BME280;50750;51.636;4.948;2023-07-20T07:42:30;101704.66;;;23.96;49.41
59873;BME280;50750;51.636;4.948;2023-07-20T07:44:56;101705.02;;;23.96;49.51
59873;BME280;50750;51.636;4.948;2023-07-20T07:47:22;101707.00;;;23.96;49.38
59873;BME280;50750;51.636;4.948;2023-07-20T07:49:49;101714.69;;;23.96;49.40
59873;BME280;50750;51.636;4.948;2023-07-20T07:52:16;101714.38;;;23.96;49.37
59873;BME280;50750;51.636;4.948;2023-07-20T07:54:42;101717.81;;;23.95;49.20
59873;BME280;50750;51.636;4.948;2023-07-20T07:57:08;101718.56;;;23.95;49.09
59873;BME280;50750;51.636;4.948;2023-07-20T07:59:35;101717.69;;;23.95;49.33
59873;BME280;50750;51.636;4.948;2023-07-20T08:02:04;101713.61;;;23.94;49.19
59873;BME280;50750;51.636;4.948;2023-07-20T08:04:31;101712.15;;;23.94;49.30
59873;BME280;50750;51.636;4.948;2023-07-20T08:06:59;101716.07;;;23.94;49.29
59873;BME280;50750;51.636;4.948;2023-07-20T08:09:25;101713.56;;;23.94;49.22
59873;BME280;50750;51.636;4.948;2023-07-20T08:11:52;101716.80;;;23.94;49.22
59873;BME280;50750;51.636;4.948;2023-07-20T08:14:18;101718.80;;;23.94;49.16
59873;BME280;50750;51.636;4.948;2023-07-20T08:16:45;101725.06;;;23.94;49.19
59873;BME280;50750;51.636;4.948;2023-07-20T08:19:13;101715.95;;;23.94;49.31
59873;BME280;50750;51.636;4.948;2023-07-20T08:21:40;101723.46;;;23.94;49.16
59873;BME280;50750;51.636;4.948;2023-07-20T08:24:06;101718.61;;;23.94;49.28
59873;BME280;50750;51.636;4.948;2023-07-20T08:26:33;101719.66;;;23.94;49.29
59873;BME280;50750;51.636;4.948;2023-07-20T08:28:59;101724.29;;;23.95;49.23
59873;BME280;50750;51.636;4.948;2023-07-20T08:31:26;101722.63;;;23.95;49.25
59873;BME280;50750;51.636;4.948;2023-07-20T08:33:54;101724.95;;;23.95;49.20
59873;BME280;50750;51.636;4.948;2023-07-20T08:36:23;101725.65;;;23.95;49.44
59873;BME280;50750;51.636;4.948;2023-07-20T08:38:50;101722.78;;;23.95;49.30
59873;BME280;50750;51.636;4.948;2023-07-20T08:41:18;101716.85;;;23.96;49.29
59873;BME280;50750;51.636;4.948;2023-07-20T08:43:45;101717.06;;;23.95;49.48
59873;BME280;50750;51.636;4.948;2023-07-20T08:46:13;101715.04;;;23.96;49.38
59873;BME280;50750;51.636;4.948;2023-07-20T08:48:42;101713.42;;;23.96;49.39
59873;BME280;50750;51.636;4.948;2023-07-20T08:51:10;101709.64;;;23.97;49.38
59873;BME280;50750;51.636;4.948;2023-07-20T08:53:37;101708.05;;;23.96;49.42
59873;BME280;50750;51.636;4.948;2023-07-20T08:56:04;101709.31;;;23.96;49.48
59873;BME280;50750;51.636;4.948;2023-07-20T08:58:31;101710.36;;;23.97;49.37
59873;BME280;50750;51.636;4.948;2023-07-20T09:01:00;101713.19;;;23.97;49.34
59873;BME280;50750;51.636;4.948;2023-07-20T09:03:27;101708.52;;;23.97;49.37
59873;BME280;50750;51.636;4.948;2023-07-20T09:05:54;101708.88;;;23.97;49.49
59873;BME280;50750;51.636;4.948;2023-07-20T09:08:20;101709.71;;;23.98;49.47
59873;BME280;50750;51.636;4.948;2023-07-20T09:10:47;101706.81;;;23.98;49.38
59873;BME280;50750;51.636;4.948;2023-07-20T09:13:16;101705.55;;;23.99;49.52
59873;BME280;50750;51.636;4.948;2023-07-20T09:15:47;101704.81;;;23.99;49.46
59873;BME280;50750;51.636;4.948;2023-07-20T09:18:24;101699.25;;;23.99;49.42
59873;BME280;50750;51.636;4.948;2023-07-20T09:20:50;101699.42;;;23.99;49.43
59873;BME280;50750;51.636;4.948;2023-07-20T09:23:17;101698.27;;;24.00;49.57
59873;BME280;50750;51.636;4.948;2023-07-20T09:25:43;101698.08;;;24.00;49.43
59873;BME280;50750;51.636;4.948;2023-07-20T09:28:12;101697.12;;;24.01;49.43
59873;BME280;50750;51.636;4.948;2023-07-20T09:30:38;101698.75;;;24.01;49.42
59873;BME280;50750;51.636;4.948;2023-07-20T09:33:05;101697.98;;;24.02;49.46
59873;BME280;50750;51.636;4.948;2023-07-20T09:35:31;101694.58;;;24.02;49.47
59873;BME280;50750;51.636;4.948;2023-07-20T09:37:59;101694.02;;;24.02;49.38
59873;BME280;50750;51.636;4.948;2023-07-20T09:40:26;101686.14;;;24.02;49.60
59873;BME280;50750;51.636;4.948;2023-07-20T09:42:54;101685.41;;;24.02;49.55
59873;BME280;50750;51.636;4.948;2023-07-20T09:45:41;101688.77;;;24.03;49.51
59873;BME280;50750;51.636;4.948;2023-07-20T09:48:10;101688.02;;;24.04;49.49
59873;BME280;50750;51.636;4.948;2023-07-20T09:50:49;101688.89;;;24.04;49.57
59873;BME280;50750;51.636;4.948;2023-07-20T09:53:16;101688.70;;;24.05;49.46
59873;BME280;50750;51.636;4.948;2023-07-20T09:55:45;101687.04;;;24.05;49.55
59873;BME280;50750;51.636;4.948;2023-07-20T09:58:12;101687.58;;;24.05;49.57
59873;BME280;50750;51.636;4.948;2023-07-20T10:00:40;101686.66;;;24.05;49.58
59873;BME280;50750;51.636;4.948;2023-07-20T10:03:14;101690.34;;;24.06;49.57
59873;BME280;50750;51.636;4.948;2023-07-20T10:06:00;101687.11;;;24.07;49.39
59873;BME280;50750;51.636;4.948;2023-07-20T10:08:30;101687.60;;;24.07;49.48
59873;BME280;50750;51.636;4.948;2023-07-20T10:10:59;101685.26;;;24.07;49.46
59873;BME280;50750;51.636;4.948;2023-07-20T10:13:29;101687.14;;;24.08;49.36
59873;BME280;50750;51.636;4.948;2023-07-20T10:16:05;101683.80;;;24.08;49.43
59873;BME280;50750;51.636;4.948;2023-07-20T10:19:03;101685.15;;;24.09;49.31
59873;BME280;50750;51.636;4.948;2023-07-20T10:22:00;101684.01;;;24.10;49.39
59873;BME280;50750;51.636;4.948;2023-07-20T10:24:31;101685.07;;;24.10;49.37
59873;BME280;50750;51.636;4.948;2023-07-20T10:26:58;101686.83;;;24.10;49.54
59873;BME280;50750;51.636;4.948;2023-07-20T10:29:25;101683.23;;;24.11;49.27
59873;BME280;50750;51.636;4.948;2023-07-20T10:31:55;101684.06;;;24.11;49.49
59873;BME280;50750;51.636;4.948;2023-07-20T10:34:22;101683.88;;;24.11;49.28
59873;BME280;50750;51.636;4.948;2023-07-20T10:36:49;101683.29;;;24.12;49.45
59873;BME280;50750;51.636;4.948;2023-07-20T10:39:24;101680.96;;;24.12;49.42
59873;BME280;50750;51.636;4.948;2023-07-20T10:42:10;101680.08;;;24.12;49.30
59873;BME280;50750;51.636;4.948;2023-07-20T10:44:37;101679.52;;;24.12;49.30
59873;BME280;50750;51.636;4.948;2023-07-20T10:47:13;101672.55;;;24.12;49.28
59873;BME280;50750;51.636;4.948;2023-07-20T10:49:59;101673.08;;;24.12;49.22
59873;BME280;50750;51.636;4.948;2023-07-20T10:52:36;101673.21;;;24.13;49.31
59873;BME280;50750;51.636;4.948;2023-07-20T10:55:16;101665.84;;;24.13;49.34
59873;BME280;50750;51.636;4.948;2023-07-20T10:57:42;101663.71;;;24.13;49.34
59873;BME280;50750;51.636;4.948;2023-07-20T11:00:13;101666.90;;;24.14;49.26
59873;BME280;50750;51.636;4.948;2023-07-20T11:02:45;101665.09;;;24.14;49.41
59873;BME280;50750;51.636;4.948;2023-07-20T11:05:32;101660.41;;;24.14;49.34
59873;BME280;50750;51.636;4.948;2023-07-20T11:08:02;101659.48;;;24.15;49.32
59873;BME280;50750;51.636;4.948;2023-07-20T11:10:29;101652.84;;;24.15;49.33
59873;BME280;50750;51.636;4.948;2023-07-20T11:13:21;101662.27;;;24.16;49.32
59873;BME280;50750;51.636;4.948;2023-07-20T11:18:28;101654.17;;;24.16;49.28
59873;BME280;50750;51.636;4.948;2023-07-20T11:20:55;101649.31;;;24.16;49.37
59873;BME280;50750;51.636;4.948;2023-07-20T11:23:22;101648.22;;;24.17;49.36
59873;BME280;50750;51.636;4.948;2023-07-20T11:25:50;101644.96;;;24.17;49.30
59873;BME280;50750;51.636;4.948;2023-07-20T11:28:16;101643.18;;;24.17;49.31
59873;BME280;50750;51.636;4.948;2023-07-20T11:30:43;101644.04;;;24.17;49.27
59873;BME280;50750;51.636;4.948;2023-07-20T11:33:10;101647.05;;;24.18;49.16
59873;BME280;50750;51.636;4.948;2023-07-20T11:35:44;101646.52;;;24.18;49.39
59873;BME280;50750;51.636;4.948;2023-07-20T11:38:13;101645.98;;;24.18;49.36
59873;BME280;50750;51.636;4.948;2023-07-20T11:40:44;101645.06;;;24.18;49.29
59873;BME280;50750;51.636;4.948;2023-07-20T11:43:13;101638.08;;;24.18;49.48
59873;BME280;50750;51.636;4.948;2023-07-20T11:45:40;101633.59;;;24.18;49.36
59873;BME280;50750;51.636;4.948;2023-07-20T11:48:14;101629.81;;;24.19;49.33
59873;BME280;50750;51.636;4.948;2023-07-20T11:50:41;101635.33;;;24.19;49.24
59873;BME280;50750;51.636;4.948;2023-07-20T11:53:08;101634.56;;;24.20;49.35
59873;BME280;50750;51.636;4.948;2023-07-20T11:55:35;101634.39;;;24.20;49.36
59873;BME280;50750;51.636;4.948;2023-07-20T11:58:05;101636.17;;;24.20;49.28
59873;BME280;50750;51.636;4.948;2023-07-20T12:00:37;101634.73;;;24.20;49.35
59873;BME280;50750;51.636;4.948;2023-07-20T12:03:06;101627.02;;;24.20;49.35
59873;BME280;50750;51.636;4.948;2023-07-20T12:05:34;101627.00;;;24.20;49.47
59873;BME280;50750;51.636;4.948;2023-07-20T12:08:01;101625.55;;;24.21;49.45
59873;BME280;50750;51.636;4.948;2023-07-20T12:10:28;101624.66;;;24.20;49.31
59873;BME280;50750;51.636;4.948;2023-07-20T12:13:01;101625.38;;;24.21;49.30
59873;BME280;50750;51.636;4.948;2023-07-20T12:15:29;101623.55;;;24.21;49.42
59873;BME280;50750;51.636;4.948;2023-07-20T12:17:59;101626.23;;;24.21;49.42
59873;BME280;50750;51.636;4.948;2023-07-20T12:20:28;101624.63;;;24.21;49.49
59873;BME280;50750;51.636;4.948;2023-07-20T12:23:08;101625.71;;;24.21;49.43
59873;BME280;50750;51.636;4.948;2023-07-20T12:25:46;101626.20;;;24.21;49.46
59873;BME280;50750;51.636;4.948;2023-07-20T12:28:18;101622.62;;;24.21;49.40
59873;BME280;50750;51.636;4.948;2023-07-20T12:30:46;101627.25;;;24.22;49.51
59873;BME280;50750;51.636;4.948;2023-07-20T12:33:14;101625.67;;;24.21;49.49
59873;BME280;50750;51.636;4.948;2023-07-20T12:35:43;101623.83;;;24.22;49.53
59873;BME280;50750;51.636;4.948;2023-07-20T12:38:10;101626.32;;;24.22;49.37
59873;BME280;50750;51.636;4.948;2023-07-20T12:40:36;101626.33;;;24.22;49.48
59873;BME280;50750;51.636;4.948;2023-07-20T12:43:03;101626.33;;;24.22;49.36
59873;BME280;50750;51.636;4.948;2023-07-20T12:45:30;101624.85;;;24.23;49.43
59873;BME280;50750;51.636;4.948;2023-07-20T12:47:57;101627.89;;;24.23;49.52
59873;BME280;50750;51.636;4.948;2023-07-20T12:50:23;101627.31;;;24.23;49.44
59873;BME280;50750;51.636;4.948;2023-07-20T12:52:50;101622.88;;;24.23;49.42
59873;BME280;50750;51.636;4.948;2023-07-20T12:55:16;101620.55;;;24.23;49.43
59873;BME280;50750;51.636;4.948;2023-07-20T12:57:43;101615.20;;;24.23;49.39
59873;BME280;50750;51.636;4.948;2023-07-20T13:00:10;101614.98;;;24.23;49.40
59873;BME280;50750;51.636;4.948;2023-07-20T13:02:38;101615.83;;;24.24;49.45
59873;BME280;50750;51.636;4.948;2023-07-20T13:05:05;101608.70;;;24.24;49.41